sensor_id;sensor_type;location;lat;lon;timestamp;P1;durP1;ratioP1;P2;durP2;ratioP2
69841;SDS011;57138;51.326;-0.068;2022-12-10T00:01:57;32.25;;;14.15;;
69841;SDS011;57138;51.326;-0.068;2022-12-10T00:04:25;35.67;;;13.50;;
69841;SDS011;57138;51.326;-0.068;2022-12-10T00:06:50;37.70;;;13.77;;
69841;SDS011;57138;51.326;-0.068;2022-12-10T00:09:16;38.95;;;12.32;;
69841;SDS011;57138;51.326;-0.068;2022-12-10T00:11:43;34.03;;;12.45;;
69841;SDS011;57138;51.326;-0.068;2022-12-10T00:14:09;31.08;;;12.05;;
69841;SDS011;57138;51.326;-0.068;2022-12-10T00:16:37;43.75;;;12.18;;
69841;SDS011;57138;51.326;-0.068;2022-12-10T00:19:03;37.65;;;12.32;;
69841;SDS011;57138;51.326;-0.068;2022-12-10T00:21:31;36.78;;;13.32;;
69841;SDS011;57138;51.326;-0.068;2022-12-10T00:24:00;40.85;;;13.20;;
69841;SDS011;57138;51.326;-0.068;2022-12-10T00:26:31;35.38;;;11.82;;
69841;SDS011;57138;51.326;-0.068;2022-12-10T00:29:01;36.55;;;12.90;;
69841;SDS011;57138;51.326;-0.068;2022-12-10T00:31:30;32.90;;;11.88;;
69841;SDS011;57138;51.326;-0.068;2022-12-10T00:33:58;43.67;;;12.88;;
69841;SDS011;57138;51.326;-0.068;2022-12-10T00:36:37;29.55;;;10.20;;
69841;SDS011;57138;51.326;-0.068;2022-12-10T00:39:10;26.33;;;11.02;;
69841;SDS011;57138;51.326;-0.068;2022-12-10T00:41:43;39.45;;;12.27;;
69841;SDS011;57138;51.326;-0.068;2022-12-10T00:44:10;28.63;;;9.93;;
69841;SDS011;57138;51.326;-0.068;2022-12-10T00:46:40;33.50;;;11.35;;
69841;SDS011;57138;51.326;-0.068;2022-12-10T00:49:06;29.30;;;10.70;;
69841;SDS011;57138;51.326;-0.068;2022-12-10T00:51:35;32.20;;;10.98;;
69841;SDS011;57138;51.326;-0.068;2022-12-10T00:54:01;28.02;;;11.18;;
69841;SDS011;57138;51.326;-0.068;2022-12-10T00:56:28;32.38;;;10.75;;
69841;SDS011;57138;51.326;-0.068;2022-12-10T00:58:58;32.95;;;10.68;;
69841;SDS011;57138;51.326;-0.068;2022-12-10T01:03:58;34.50;;;10.82;;
69841;SDS011;57138;51.326;-0.068;2022-12-10T01:06:30;37.45;;;11.50;;
69841;SDS011;57138;51.326;-0.068;2022-12-10T01:09:00;35.53;;;11.02;;
69841;SDS011;57138;51.326;-0.068;2022-12-10T01:11:31;42.65;;;12.32;;
69841;SDS011;57138;51.326;-0.068;2022-12-10T01:14:04;38.58;;;12.70;;
69841;SDS011;57138;51.326;-0.068;2022-12-10T01:16:35;35.15;;;11.35;;
69841;SDS011;57138;51.326;-0.068;2022-12-10T01:19:02;32.00;;;11.43;;
69841;SDS011;57138;51.326;-0.068;2022-12-10T01:21:30;35.40;;;12.43;;
69841;SDS011;57138;51.326;-0.068;2022-12-10T01:23:57;38.28;;;13.48;;
69841;SDS011;57138;51.326;-0.068;2022-12-10T01:26:27;38.47;;;12.80;;
69841;SDS011;57138;51.326;-0.068;2022-12-10T01:28:54;37.55;;;12.23;;
69841;SDS011;57138;51.326;-0.068;2022-12-10T01:31:25;36.38;;;12.10;;
69841;SDS011;57138;51.326;-0.068;2022-12-10T01:34:09;45.17;;;12.95;;
69841;SDS011;57138;51.326;-0.068;2022-12-10T01:36:42;38.95;;;13.00;;
69841;SDS011;57138;51.326;-0.068;2022-12-10T01:39:10;39.15;;;13.18;;
69841;SDS011;57138;51.326;-0.068;2022-12-10T01:41:40;48.67;;;14.88;;
69841;SDS011;57138;51.326;-0.068;2022-12-10T01:46:48;42.90;;;14.07;;
69841;SDS011;57138;51.326;-0.068;2022-12-10T01:49:19;40.60;;;13.63;;
69841;SDS011;57138;51.326;-0.068;2022-12-10T01:51:47;38.42;;;13.88;;
69841;SDS011;57138;51.326;-0.068;2022-12-10T01:54:17;45.92;;;14.27;;
69841;SDS011;57138;51.326;-0.068;2022-12-10T01:56:46;39.67;;;14.20;;
69841;SDS011;57138;51.326;-0.068;2022-12-10T01:59:17;38.85;;;13.77;;
69841;SDS011;57138;51.326;-0.068;2022-12-10T02:12:19;38.15;;;12.98;;
69841;SDS011;57138;51.326;-0.068;2022-12-10T02:15:12;35.88;;;12.82;;
69841;SDS011;57138;51.326;-0.068;2022-12-10T02:17:51;37.33;;;13.85;;
69841;SDS011;57138;51.326;-0.068;2022-12-10T02:23:15;46.35;;;13.57;;
69841;SDS011;57138;51.326;-0.068;2022-12-10T02:31:13;49.28;;;15.40;;
69841;SDS011;57138;51.326;-0.068;2022-12-10T02:33:44;48.55;;;13.68;;
69841;SDS011;57138;51.326;-0.068;2022-12-10T02:36:16;42.28;;;15.93;;
69841;SDS011;57138;51.326;-0.068;2022-12-10T02:38:49;44.40;;;12.95;;
69841;SDS011;57138;51.326;-0.068;2022-12-10T02:41:23;42.47;;;14.25;;
69841;SDS011;57138;51.326;-0.068;2022-12-10T02:43:57;32.65;;;12.85;;
69841;SDS011;57138;51.326;-0.068;2022-12-10T02:46:27;39.08;;;12.48;;
69841;SDS011;57138;51.326;-0.068;2022-12-10T02:48:55;37.75;;;12.80;;
69841;SDS011;57138;51.326;-0.068;2022-12-10T02:51:24;42.60;;;12.20;;
69841;SDS011;57138;51.326;-0.068;2022-12-10T02:54:00;38.58;;;12.50;;
69841;SDS011;57138;51.326;-0.068;2022-12-10T03:02:14;39.70;;;13.77;;
69841;SDS011;57138;51.326;-0.068;2022-12-10T03:04:53;42.47;;;14.95;;
69841;SDS011;57138;51.326;-0.068;2022-12-10T03:07:23;42.15;;;12.27;;
69841;SDS011;57138;51.326;-0.068;2022-12-10T03:09:59;41.13;;;13.07;;
69841;SDS011;57138;51.326;-0.068;2022-12-10T03:12:40;36.75;;;12.45;;
69841;SDS011;57138;51.326;-0.068;2022-12-10T03:15:10;40.42;;;13.75;;
69841;SDS011;57138;51.326;-0.068;2022-12-10T03:17:38;45.60;;;13.27;;
69841;SDS011;57138;51.326;-0.068;2022-12-10T03:20:13;38.08;;;13.00;;
69841;SDS011;57138;51.326;-0.068;2022-12-10T03:22:49;41.88;;;12.07;;
69841;SDS011;57138;51.326;-0.068;2022-12-10T03:25:19;37.58;;;12.05;;
69841;SDS011;57138;51.326;-0.068;2022-12-10T03:27:49;40.13;;;12.90;;
69841;SDS011;57138;51.326;-0.068;2022-12-10T03:30:20;39.22;;;12.45;;
69841;SDS011;57138;51.326;-0.068;2022-12-10T03:32:48;34.22;;;11.63;;
69841;SDS011;57138;51.326;-0.068;2022-12-10T03:35:17;35.13;;;12.43;;
69841;SDS011;57138;51.326;-0.068;2022-12-10T03:37:46;41.08;;;12.88;;
69841;SDS011;57138;51.326;-0.068;2022-12-10T03:40:14;45.28;;;13.68;;
69841;SDS011;57138;51.326;-0.068;2022-12-10T03:42:44;43.58;;;12.38;;
69841;SDS011;57138;51.326;-0.068;2022-12-10T03:45:12;37.22;;;12.73;;
69841;SDS011;57138;51.326;-0.068;2022-12-10T03:47:39;36.22;;;13.50;;
69841;SDS011;57138;51.326;-0.068;2022-12-10T03:50:06;36.22;;;13.07;;
69841;SDS011;57138;51.326;-0.068;2022-12-10T03:52:33;39.15;;;13.02;;
69841;SDS011;57138;51.326;-0.068;2022-12-10T03:55:02;38.38;;;11.40;;
69841;SDS011;57138;51.326;-0.068;2022-12-10T03:57:29;31.60;;;11.10;;
69841;SDS011;57138;51.326;-0.068;2022-12-10T03:59:58;40.28;;;12.75;;
69841;SDS011;57138;51.326;-0.068;2022-12-10T04:02:25;34.45;;;12.30;;
69841;SDS011;57138;51.326;-0.068;2022-12-10T04:04:53;37.55;;;12.43;;
69841;SDS011;57138;51.326;-0.068;2022-12-10T04:07:20;41.67;;;12.98;;
69841;SDS011;57138;51.326;-0.068;2022-12-10T04:09:50;48.70;;;13.07;;
69841;SDS011;57138;51.326;-0.068;2022-12-10T04:12:17;46.25;;;13.73;;
69841;SDS011;57138;51.326;-0.068;2022-12-10T04:14:43;42.95;;;14.30;;
69841;SDS011;57138;51.326;-0.068;2022-12-10T04:17:28;36.67;;;11.93;;
69841;SDS011;57138;51.326;-0.068;2022-12-10T04:19:53;32.28;;;12.07;;
69841;SDS011;57138;51.326;-0.068;2022-12-10T04:22:20;35.80;;;12.80;;
69841;SDS011;57138;51.326;-0.068;2022-12-10T04:25:06;38.35;;;11.48;;
69841;SDS011;57138;51.326;-0.068;2022-12-10T04:27:52;33.65;;;10.88;;
69841;SDS011;57138;51.326;-0.068;2022-12-10T04:30:19;36.35;;;11.13;;
69841;SDS011;57138;51.326;-0.068;2022-12-10T04:32:46;34.45;;;11.15;;
69841;SDS011;57138;51.326;-0.068;2022-12-10T04:35:12;32.95;;;11.60;;
69841;SDS011;57138;51.326;-0.068;2022-12-10T04:37:39;29.73;;;9.93;;
69841;SDS011;57138;51.326;-0.068;2022-12-10T04:40:05;32.00;;;11.77;;
69841;SDS011;57138;51.326;-0.068;2022-12-10T04:42:37;36.20;;;10.55;;
69841;SDS011;57138;51.326;-0.068;2022-12-10T04:45:04;29.00;;;9.85;;
69841;SDS011;57138;51.326;-0.068;2022-12-10T04:47:30;36.58;;;11.23;;
69841;SDS011;57138;51.326;-0.068;2022-12-10T04:50:04;31.52;;;10.48;;
69841;SDS011;57138;51.326;-0.068;2022-12-10T04:52:33;39.40;;;12.18;;
69841;SDS011;57138;51.326;-0.068;2022-12-10T04:55:00;28.30;;;11.15;;
69841;SDS011;57138;51.326;-0.068;2022-12-10T04:57:26;23.42;;;10.32;;
69841;SDS011;57138;51.326;-0.068;2022-12-10T04:59:51;39.15;;;12.52;;
69841;SDS011;57138;51.326;-0.068;2022-12-10T05:02:18;33.25;;;11.63;;
69841;SDS011;57138;51.326;-0.068;2022-12-10T05:04:44;38.95;;;13.15;;
69841;SDS011;57138;51.326;-0.068;2022-12-10T05:07:10;42.15;;;14.38;;
69841;SDS011;57138;51.326;-0.068;2022-12-10T05:09:37;40.40;;;13.93;;
69841;SDS011;57138;51.326;-0.068;2022-12-10T05:12:08;39.55;;;14.13;;
69841;SDS011;57138;51.326;-0.068;2022-12-10T05:14:34;35.83;;;13.45;;
69841;SDS011;57138;51.326;-0.068;2022-12-10T05:16:59;37.85;;;13.45;;
69841;SDS011;57138;51.326;-0.068;2022-12-10T05:19:26;50.53;;;13.70;;
69841;SDS011;57138;51.326;-0.068;2022-12-10T05:21:53;43.40;;;13.43;;
69841;SDS011;57138;51.326;-0.068;2022-12-10T05:24:38;36.17;;;13.02;;
69841;SDS011;57138;51.326;-0.068;2022-12-10T05:27:05;58.28;;;16.38;;
69841;SDS011;57138;51.326;-0.068;2022-12-10T05:29:32;50.45;;;16.52;;
69841;SDS011;57138;51.326;-0.068;2022-12-10T05:31:59;46.03;;;15.20;;
69841;SDS011;57138;51.326;-0.068;2022-12-10T05:34:25;42.80;;;14.38;;
69841;SDS011;57138;51.326;-0.068;2022-12-10T05:36:51;37.72;;;14.35;;
69841;SDS011;57138;51.326;-0.068;2022-12-10T05:39:18;41.67;;;14.25;;
69841;SDS011;57138;51.326;-0.068;2022-12-10T05:41:45;39.75;;;11.40;;
69841;SDS011;57138;51.326;-0.068;2022-12-10T05:44:12;36.95;;;12.93;;
69841;SDS011;57138;51.326;-0.068;2022-12-10T05:46:39;36.20;;;11.77;;
69841;SDS011;57138;51.326;-0.068;2022-12-10T05:49:07;25.52;;;11.43;;
69841;SDS011;57138;51.326;-0.068;2022-12-10T05:51:33;33.80;;;11.88;;
69841;SDS011;57138;51.326;-0.068;2022-12-10T05:54:02;34.40;;;11.30;;
69841;SDS011;57138;51.326;-0.068;2022-12-10T05:56:28;27.60;;;10.52;;
69841;SDS011;57138;51.326;-0.068;2022-12-10T05:58:57;30.45;;;10.77;;
69841;SDS011;57138;51.326;-0.068;2022-12-10T06:01:26;33.42;;;10.85;;
69841;SDS011;57138;51.326;-0.068;2022-12-10T06:03:58;27.35;;;10.68;;
69841;SDS011;57138;51.326;-0.068;2022-12-10T06:06:26;23.45;;;9.43;;
69841;SDS011;57138;51.326;-0.068;2022-12-10T06:08:54;30.48;;;10.82;;
69841;SDS011;57138;51.326;-0.068;2022-12-10T06:11:22;22.95;;;8.98;;
69841;SDS011;57138;51.326;-0.068;2022-12-10T06:13:51;28.20;;;10.68;;
69841;SDS011;57138;51.326;-0.068;2022-12-10T06:16:20;27.13;;;9.30;;
69841;SDS011;57138;51.326;-0.068;2022-12-10T06:18:50;27.02;;;9.80;;
69841;SDS011;57138;51.326;-0.068;2022-12-10T06:21:17;21.70;;;8.82;;
69841;SDS011;57138;51.326;-0.068;2022-12-10T06:23:47;25.17;;;9.18;;
69841;SDS011;57138;51.326;-0.068;2022-12-10T06:26:17;20.75;;;8.70;;
69841;SDS011;57138;51.326;-0.068;2022-12-10T06:28:48;29.67;;;9.13;;
69841;SDS011;57138;51.326;-0.068;2022-12-10T06:31:16;20.25;;;9.05;;
69841;SDS011;57138;51.326;-0.068;2022-12-10T06:33:43;25.75;;;8.85;;
69841;SDS011;57138;51.326;-0.068;2022-12-10T06:36:12;19.80;;;8.20;;
69841;SDS011;57138;51.326;-0.068;2022-12-10T06:38:40;23.00;;;8.73;;
69841;SDS011;57138;51.326;-0.068;2022-12-10T06:41:07;23.50;;;9.10;;
69841;SDS011;57138;51.326;-0.068;2022-12-10T06:43:36;23.48;;;8.68;;
69841;SDS011;57138;51.326;-0.068;2022-12-10T06:46:09;26.40;;;9.55;;
69841;SDS011;57138;51.326;-0.068;2022-12-10T06:48:36;20.98;;;9.50;;
69841;SDS011;57138;51.326;-0.068;2022-12-10T06:51:04;22.35;;;10.20;;
69841;SDS011;57138;51.326;-0.068;2022-12-10T06:53:31;18.63;;;8.00;;
69841;SDS011;57138;51.326;-0.068;2022-12-10T06:56:00;18.48;;;7.88;;
69841;SDS011;57138;51.326;-0.068;2022-12-10T06:58:32;30.02;;;8.82;;
69841;SDS011;57138;51.326;-0.068;2022-12-10T07:01:03;24.08;;;8.45;;
69841;SDS011;57138;51.326;-0.068;2022-12-10T07:03:32;23.30;;;7.70;;
69841;SDS011;57138;51.326;-0.068;2022-12-10T07:05:58;18.85;;;7.75;;
69841;SDS011;57138;51.326;-0.068;2022-12-10T07:08:25;18.67;;;8.15;;
69841;SDS011;57138;51.326;-0.068;2022-12-10T07:10:52;20.90;;;8.07;;
69841;SDS011;57138;51.326;-0.068;2022-12-10T07:13:20;25.70;;;7.78;;
69841;SDS011;57138;51.326;-0.068;2022-12-10T07:15:47;21.38;;;7.72;;
69841;SDS011;57138;51.326;-0.068;2022-12-10T07:18:13;18.35;;;7.82;;
69841;SDS011;57138;51.326;-0.068;2022-12-10T07:20:39;22.73;;;8.32;;
69841;SDS011;57138;51.326;-0.068;2022-12-10T07:23:08;19.67;;;8.38;;
69841;SDS011;57138;51.326;-0.068;2022-12-10T07:25:35;15.75;;;7.47;;
69841;SDS011;57138;51.326;-0.068;2022-12-10T07:28:00;25.83;;;8.02;;
69841;SDS011;57138;51.326;-0.068;2022-12-10T07:30:26;20.98;;;7.53;;
69841;SDS011;57138;51.326;-0.068;2022-12-10T07:32:52;22.33;;;7.32;;
69841;SDS011;57138;51.326;-0.068;2022-12-10T07:35:18;21.70;;;8.23;;
69841;SDS011;57138;51.326;-0.068;2022-12-10T07:37:44;17.92;;;7.63;;
69841;SDS011;57138;51.326;-0.068;2022-12-10T07:40:11;22.20;;;8.90;;
69841;SDS011;57138;51.326;-0.068;2022-12-10T07:42:38;21.30;;;8.18;;
69841;SDS011;57138;51.326;-0.068;2022-12-10T07:45:05;19.95;;;8.70;;
69841;SDS011;57138;51.326;-0.068;2022-12-10T07:47:34;22.70;;;8.45;;
69841;SDS011;57138;51.326;-0.068;2022-12-10T07:50:02;17.55;;;7.05;;
69841;SDS011;57138;51.326;-0.068;2022-12-10T07:52:29;23.30;;;8.07;;
69841;SDS011;57138;51.326;-0.068;2022-12-10T07:54:59;21.67;;;8.50;;
69841;SDS011;57138;51.326;-0.068;2022-12-10T07:57:28;26.30;;;8.38;;
69841;SDS011;57138;51.326;-0.068;2022-12-10T07:59:55;23.20;;;9.43;;
69841;SDS011;57138;51.326;-0.068;2022-12-10T08:02:21;24.33;;;9.52;;
69841;SDS011;57138;51.326;-0.068;2022-12-10T08:04:48;20.90;;;7.85;;
69841;SDS011;57138;51.326;-0.068;2022-12-10T08:07:15;24.85;;;9.40;;
69841;SDS011;57138;51.326;-0.068;2022-12-10T08:09:41;28.65;;;9.27;;
69841;SDS011;57138;51.326;-0.068;2022-12-10T08:12:08;32.40;;;10.52;;
69841;SDS011;57138;51.326;-0.068;2022-12-10T08:14:36;22.67;;;9.27;;
69841;SDS011;57138;51.326;-0.068;2022-12-10T08:17:02;23.85;;;9.70;;
69841;SDS011;57138;51.326;-0.068;2022-12-10T08:19:28;24.40;;;10.60;;
69841;SDS011;57138;51.326;-0.068;2022-12-10T08:21:53;31.95;;;12.15;;
69841;SDS011;57138;51.326;-0.068;2022-12-10T08:24:19;24.05;;;10.75;;
69841;SDS011;57138;51.326;-0.068;2022-12-10T08:26:46;26.35;;;10.52;;
69841;SDS011;57138;51.326;-0.068;2022-12-10T08:29:16;27.90;;;10.85;;
69841;SDS011;57138;51.326;-0.068;2022-12-10T08:31:45;27.85;;;10.43;;
69841;SDS011;57138;51.326;-0.068;2022-12-10T08:34:14;25.45;;;9.60;;
69841;SDS011;57138;51.326;-0.068;2022-12-10T08:36:42;29.95;;;9.50;;
69841;SDS011;57138;51.326;-0.068;2022-12-10T08:39:09;31.20;;;11.98;;
69841;SDS011;57138;51.326;-0.068;2022-12-10T08:41:42;27.02;;;11.15;;
69841;SDS011;57138;51.326;-0.068;2022-12-10T08:44:10;30.85;;;12.48;;
69841;SDS011;57138;51.326;-0.068;2022-12-10T08:46:38;33.35;;;10.40;;
69841;SDS011;57138;51.326;-0.068;2022-12-10T08:49:05;30.88;;;11.43;;
69841;SDS011;57138;51.326;-0.068;2022-12-10T08:51:35;24.48;;;9.82;;
69841;SDS011;57138;51.326;-0.068;2022-12-10T08:54:03;32.28;;;12.57;;
69841;SDS011;57138;51.326;-0.068;2022-12-10T08:56:29;24.90;;;10.52;;
69841;SDS011;57138;51.326;-0.068;2022-12-10T08:58:55;29.25;;;11.43;;
69841;SDS011;57138;51.326;-0.068;2022-12-10T09:01:21;30.50;;;11.43;;
69841;SDS011;57138;51.326;-0.068;2022-12-10T09:03:47;28.50;;;11.32;;
69841;SDS011;57138;51.326;-0.068;2022-12-10T09:06:14;35.72;;;11.40;;
69841;SDS011;57138;51.326;-0.068;2022-12-10T09:08:44;33.45;;;11.18;;
69841;SDS011;57138;51.326;-0.068;2022-12-10T09:11:14;29.25;;;10.90;;
69841;SDS011;57138;51.326;-0.068;2022-12-10T09:13:43;33.22;;;10.80;;
69841;SDS011;57138;51.326;-0.068;2022-12-10T09:16:10;30.65;;;11.02;;
69841;SDS011;57138;51.326;-0.068;2022-12-10T09:18:36;35.20;;;12.50;;
69841;SDS011;57138;51.326;-0.068;2022-12-10T09:21:07;28.33;;;11.48;;
69841;SDS011;57138;51.326;-0.068;2022-12-10T09:23:35;34.08;;;11.32;;
69841;SDS011;57138;51.326;-0.068;2022-12-10T09:26:04;29.90;;;10.55;;
69841;SDS011;57138;51.326;-0.068;2022-12-10T09:28:32;27.55;;;10.57;;
69841;SDS011;57138;51.326;-0.068;2022-12-10T09:30:59;37.97;;;10.48;;
69841;SDS011;57138;51.326;-0.068;2022-12-10T09:33:27;36.00;;;11.23;;
69841;SDS011;57138;51.326;-0.068;2022-12-10T09:35:57;34.75;;;11.32;;
69841;SDS011;57138;51.326;-0.068;2022-12-10T09:38:23;26.00;;;9.63;;
69841;SDS011;57138;51.326;-0.068;2022-12-10T09:41:00;33.40;;;10.73;;
69841;SDS011;57138;51.326;-0.068;2022-12-10T09:43:32;27.17;;;10.52;;
69841;SDS011;57138;51.326;-0.068;2022-12-10T09:46:30;30.60;;;10.77;;
69841;SDS011;57138;51.326;-0.068;2022-12-10T09:49:17;31.88;;;10.50;;
69841;SDS011;57138;51.326;-0.068;2022-12-10T09:52:04;26.80;;;9.00;;
69841;SDS011;57138;51.326;-0.068;2022-12-10T09:54:39;36.88;;;9.95;;
69841;SDS011;57138;51.326;-0.068;2022-12-10T09:57:10;29.42;;;11.13;;
69841;SDS011;57138;51.326;-0.068;2022-12-10T09:59:48;30.40;;;10.40;;
69841;SDS011;57138;51.326;-0.068;2022-12-10T10:02:27;32.90;;;9.85;;
69841;SDS011;57138;51.326;-0.068;2022-12-10T10:07:31;33.53;;;10.60;;
69841;SDS011;57138;51.326;-0.068;2022-12-10T10:10:01;27.38;;;10.05;;
69841;SDS011;57138;51.326;-0.068;2022-12-10T10:12:30;32.10;;;9.30;;
69841;SDS011;57138;51.326;-0.068;2022-12-10T10:14:57;22.00;;;8.82;;
69841;SDS011;57138;51.326;-0.068;2022-12-10T10:17:30;25.77;;;8.85;;
69841;SDS011;57138;51.326;-0.068;2022-12-10T10:20:04;30.63;;;9.25;;
69841;SDS011;57138;51.326;-0.068;2022-12-10T10:22:35;25.83;;;9.02;;
69841;SDS011;57138;51.326;-0.068;2022-12-10T10:25:05;29.20;;;9.68;;
69841;SDS011;57138;51.326;-0.068;2022-12-10T10:27:38;24.27;;;8.68;;
69841;SDS011;57138;51.326;-0.068;2022-12-10T10:30:04;29.08;;;8.63;;
69841;SDS011;57138;51.326;-0.068;2022-12-10T10:35:02;36.00;;;9.65;;
69841;SDS011;57138;51.326;-0.068;2022-12-10T10:40:01;22.17;;;6.93;;
69841;SDS011;57138;51.326;-0.068;2022-12-10T10:42:34;21.02;;;7.13;;
69841;SDS011;57138;51.326;-0.068;2022-12-10T10:45:04;21.15;;;7.18;;
69841;SDS011;57138;51.326;-0.068;2022-12-10T10:47:52;24.90;;;6.88;;
69841;SDS011;57138;51.326;-0.068;2022-12-10T10:50:32;29.17;;;7.55;;
69841;SDS011;57138;51.326;-0.068;2022-12-10T10:56:14;28.05;;;6.95;;
69841;SDS011;57138;51.326;-0.068;2022-12-10T10:58:47;15.70;;;5.78;;
69841;SDS011;57138;51.326;-0.068;2022-12-10T11:04:47;18.73;;;7.03;;
69841;SDS011;57138;51.326;-0.068;2022-12-10T11:07:26;14.68;;;5.38;;
69841;SDS011;57138;51.326;-0.068;2022-12-10T11:09:59;17.50;;;5.22;;
69841;SDS011;57138;51.326;-0.068;2022-12-10T11:17:50;12.38;;;4.00;;
69841;SDS011;57138;51.326;-0.068;2022-12-10T11:20:24;15.75;;;3.78;;
69841;SDS011;57138;51.326;-0.068;2022-12-10T11:22:59;16.27;;;5.20;;
69841;SDS011;57138;51.326;-0.068;2022-12-10T11:31:11;9.30;;;4.10;;
69841;SDS011;57138;51.326;-0.068;2022-12-10T11:33:49;16.67;;;4.32;;
69841;SDS011;57138;51.326;-0.068;2022-12-10T11:44:47;9.75;;;3.75;;
69841;SDS011;57138;51.326;-0.068;2022-12-10T11:47:34;13.60;;;4.05;;
69841;SDS011;57138;51.326;-0.068;2022-12-10T11:55:46;9.43;;;3.72;;
69841;SDS011;57138;51.326;-0.068;2022-12-10T12:01:30;10.10;;;3.50;;
69841;SDS011;57138;51.326;-0.068;2022-12-10T12:17:48;7.03;;;2.50;;
69841;SDS011;57138;51.326;-0.068;2022-12-10T12:20:55;15.25;;;3.67;;
69841;SDS011;57138;51.326;-0.068;2022-12-10T12:26:08;7.32;;;2.60;;
69841;SDS011;57138;51.326;-0.068;2022-12-10T12:29:13;6.90;;;2.40;;
69841;SDS011;57138;51.326;-0.068;2022-12-10T12:31:49;8.13;;;2.13;;
69841;SDS011;57138;51.326;-0.068;2022-12-10T12:35:08;8.82;;;2.25;;
69841;SDS011;57138;51.326;-0.068;2022-12-10T12:43:11;10.27;;;2.85;;
69841;SDS011;57138;51.326;-0.068;2022-12-10T12:45:49;6.70;;;2.25;;
69841;SDS011;57138;51.326;-0.068;2022-12-10T12:53:31;8.38;;;2.67;;
69841;SDS011;57138;51.326;-0.068;2022-12-10T12:56:40;6.43;;;2.58;;
69841;SDS011;57138;51.326;-0.068;2022-12-10T13:02:42;14.02;;;3.65;;
69841;SDS011;57138;51.326;-0.068;2022-12-10T13:05:28;7.57;;;3.10;;
69841;SDS011;57138;51.326;-0.068;2022-12-10T13:13:22;8.80;;;3.15;;
69841;SDS011;57138;51.326;-0.068;2022-12-10T13:29:28;13.88;;;5.82;;
69841;SDS011;57138;51.326;-0.068;2022-12-10T13:32:12;22.80;;;10.00;;
69841;SDS011;57138;51.326;-0.068;2022-12-10T13:34:45;19.08;;;8.80;;
69841;SDS011;57138;51.326;-0.068;2022-12-10T13:37:34;12.57;;;6.05;;
69841;SDS011;57138;51.326;-0.068;2022-12-10T13:43:27;11.73;;;4.28;;
69841;SDS011;57138;51.326;-0.068;2022-12-10T13:48:54;12.23;;;3.05;;
69841;SDS011;57138;51.326;-0.068;2022-12-10T13:51:30;9.40;;;4.28;;
69841;SDS011;57138;51.326;-0.068;2022-12-10T13:59:35;13.57;;;4.53;;
69841;SDS011;57138;51.326;-0.068;2022-12-10T14:08:05;20.63;;;8.82;;
69841;SDS011;57138;51.326;-0.068;2022-12-10T14:10:51;21.08;;;10.30;;
69841;SDS011;57138;51.326;-0.068;2022-12-10T14:13:27;14.43;;;6.55;;
69841;SDS011;57138;51.326;-0.068;2022-12-10T14:16:12;16.52;;;6.55;;
69841;SDS011;57138;51.326;-0.068;2022-12-10T14:18:41;17.98;;;6.95;;
69841;SDS011;57138;51.326;-0.068;2022-12-10T14:21:10;19.77;;;7.88;;
69841;SDS011;57138;51.326;-0.068;2022-12-10T14:23:45;15.93;;;5.95;;
69841;SDS011;57138;51.326;-0.068;2022-12-10T14:26:47;12.55;;;6.18;;
69841;SDS011;57138;51.326;-0.068;2022-12-10T14:31:36;16.17;;;5.80;;
69841;SDS011;57138;51.326;-0.068;2022-12-10T14:34:08;14.35;;;6.88;;
69841;SDS011;57138;51.326;-0.068;2022-12-10T14:36:43;15.60;;;7.05;;
69841;SDS011;57138;51.326;-0.068;2022-12-10T14:39:26;13.93;;;6.18;;
69841;SDS011;57138;51.326;-0.068;2022-12-10T14:41:55;18.95;;;7.07;;
69841;SDS011;57138;51.326;-0.068;2022-12-10T14:44:23;21.15;;;8.30;;
69841;SDS011;57138;51.326;-0.068;2022-12-10T14:47:02;20.88;;;9.63;;
69841;SDS011;57138;51.326;-0.068;2022-12-10T14:49:40;19.15;;;8.38;;
69841;SDS011;57138;51.326;-0.068;2022-12-10T14:52:13;16.58;;;9.20;;
69841;SDS011;57138;51.326;-0.068;2022-12-10T14:54:45;29.05;;;11.75;;
69841;SDS011;57138;51.326;-0.068;2022-12-10T14:57:24;34.88;;;16.70;;
69841;SDS011;57138;51.326;-0.068;2022-12-10T15:02:44;25.92;;;10.95;;
69841;SDS011;57138;51.326;-0.068;2022-12-10T15:05:17;21.58;;;9.38;;
69841;SDS011;57138;51.326;-0.068;2022-12-10T15:07:55;22.98;;;11.98;;
69841;SDS011;57138;51.326;-0.068;2022-12-10T15:10:41;33.28;;;15.45;;
69841;SDS011;57138;51.326;-0.068;2022-12-10T15:13:17;25.00;;;13.18;;
69841;SDS011;57138;51.326;-0.068;2022-12-10T15:15:50;24.53;;;12.53;;
69841;SDS011;57138;51.326;-0.068;2022-12-10T15:18:21;28.02;;;15.25;;
69841;SDS011;57138;51.326;-0.068;2022-12-10T15:23:42;24.80;;;14.88;;
69841;SDS011;57138;51.326;-0.068;2022-12-10T15:28:45;28.90;;;12.07;;
69841;SDS011;57138;51.326;-0.068;2022-12-10T15:31:22;31.55;;;16.33;;
69841;SDS011;57138;51.326;-0.068;2022-12-10T15:33:59;25.20;;;13.30;;
69841;SDS011;57138;51.326;-0.068;2022-12-10T15:39:20;27.60;;;10.15;;
69841;SDS011;57138;51.326;-0.068;2022-12-10T15:41:59;22.05;;;10.35;;
69841;SDS011;57138;51.326;-0.068;2022-12-10T15:47:03;22.85;;;10.45;;
69841;SDS011;57138;51.326;-0.068;2022-12-10T15:49:29;27.33;;;12.63;;
69841;SDS011;57138;51.326;-0.068;2022-12-10T15:51:57;25.88;;;11.75;;
69841;SDS011;57138;51.326;-0.068;2022-12-10T15:54:26;20.65;;;11.48;;
69841;SDS011;57138;51.326;-0.068;2022-12-10T15:56:56;23.23;;;10.98;;
69841;SDS011;57138;51.326;-0.068;2022-12-10T15:59:22;28.08;;;11.75;;
69841;SDS011;57138;51.326;-0.068;2022-12-10T16:01:47;25.08;;;12.32;;
69841;SDS011;57138;51.326;-0.068;2022-12-10T16:04:13;30.05;;;13.90;;
69841;SDS011;57138;51.326;-0.068;2022-12-10T16:06:39;33.35;;;15.38;;
69841;SDS011;57138;51.326;-0.068;2022-12-10T16:09:05;32.33;;;14.63;;
69841;SDS011;57138;51.326;-0.068;2022-12-10T16:11:35;29.17;;;14.02;;
69841;SDS011;57138;51.326;-0.068;2022-12-10T16:14:12;27.75;;;13.20;;
69841;SDS011;57138;51.326;-0.068;2022-12-10T16:16:38;36.17;;;14.35;;
69841;SDS011;57138;51.326;-0.068;2022-12-10T16:19:08;33.78;;;14.95;;
69841;SDS011;57138;51.326;-0.068;2022-12-10T16:21:41;45.65;;;17.70;;
69841;SDS011;57138;51.326;-0.068;2022-12-10T16:24:08;38.65;;;16.95;;
69841;SDS011;57138;51.326;-0.068;2022-12-10T16:26:34;44.67;;;19.65;;
69841;SDS011;57138;51.326;-0.068;2022-12-10T16:29:02;40.75;;;19.85;;
69841;SDS011;57138;51.326;-0.068;2022-12-10T16:31:28;47.22;;;20.77;;
69841;SDS011;57138;51.326;-0.068;2022-12-10T16:33:54;47.53;;;24.65;;
69841;SDS011;57138;51.326;-0.068;2022-12-10T16:36:22;46.15;;;19.83;;
69841;SDS011;57138;51.326;-0.068;2022-12-10T16:38:48;41.15;;;18.77;;
69841;SDS011;57138;51.326;-0.068;2022-12-10T16:41:18;47.00;;;21.27;;
69841;SDS011;57138;51.326;-0.068;2022-12-10T16:43:47;45.75;;;20.13;;
69841;SDS011;57138;51.326;-0.068;2022-12-10T16:46:15;46.33;;;19.15;;
69841;SDS011;57138;51.326;-0.068;2022-12-10T16:48:49;46.53;;;19.60;;
69841;SDS011;57138;51.326;-0.068;2022-12-10T16:51:18;52.70;;;21.13;;
69841;SDS011;57138;51.326;-0.068;2022-12-10T16:53:51;40.30;;;18.02;;
69841;SDS011;57138;51.326;-0.068;2022-12-10T16:56:17;43.92;;;21.42;;
69841;SDS011;57138;51.326;-0.068;2022-12-10T16:58:43;53.83;;;20.92;;
69841;SDS011;57138;51.326;-0.068;2022-12-10T17:01:19;97.47;;;37.03;;
69841;SDS011;57138;51.326;-0.068;2022-12-10T17:03:47;62.08;;;26.00;;
69841;SDS011;57138;51.326;-0.068;2022-12-10T17:06:15;53.42;;;24.30;;
69841;SDS011;57138;51.326;-0.068;2022-12-10T17:08:41;50.42;;;21.27;;
69841;SDS011;57138;51.326;-0.068;2022-12-10T17:11:18;39.17;;;18.05;;